createdAt,value
2022-10-18T00:00:23.792Z,23.80
2022-10-18T00:01:26.078Z,23.80
2022-10-18T00:02:28.419Z,23.80
2022-10-18T00:03:31.316Z,23.80
2022-10-18T00:04:33.765Z,23.80
2022-10-18T00:05:36.321Z,23.80
2022-10-18T00:06:42.581Z,23.80
2022-10-18T00:07:45.886Z,23.80
2022-10-18T00:08:48.193Z,23.80
2022-10-18T00:09:50.522Z,23.80
2022-10-18T00:10:53.141Z,23.80
2022-10-18T00:11:56.083Z,23.80
2022-10-18T00:12:58.342Z,23.80
2022-10-18T00:14:00.825Z,23.80
2022-10-18T00:15:05.226Z,23.80
2022-10-18T00:16:12.881Z,23.80
2022-10-18T00:17:15.322Z,23.80
2022-10-18T00:18:17.890Z,23.70
2022-10-18T00:19:20.139Z,23.80
2022-10-18T00:20:22.464Z,23.80
2022-10-18T00:21:26.012Z,23.80
2022-10-18T00:22:28.493Z,23.80
2022-10-18T00:23:32.340Z,23.80
2022-10-18T00:24:34.569Z,23.80
2022-10-18T00:25:36.840Z,23.80
2022-10-18T00:26:39.122Z,23.80
2022-10-18T00:27:41.430Z,23.80
2022-10-18T00:28:44.535Z,23.80
2022-10-18T00:29:46.897Z,23.80
2022-10-18T00:31:52.364Z,23.80
2022-10-18T00:32:54.617Z,23.80
2022-10-18T00:34:00.453Z,23.80
2022-10-18T00:35:02.814Z,23.80
2022-10-18T00:36:05.415Z,23.80
2022-10-18T00:37:07.712Z,23.80
2022-10-18T00:38:09.949Z,23.80
2022-10-18T00:39:17.062Z,23.80
2022-10-18T00:40:19.379Z,23.80
2022-10-18T00:41:26.007Z,23.80
2022-10-18T00:42:32.496Z,23.80
2022-10-18T00:43:59.177Z,23.80
2022-10-18T00:45:03.988Z,23.80
2022-10-18T00:46:06.223Z,23.80
2022-10-18T00:47:12.741Z,23.80
2022-10-18T00:48:17.926Z,23.80
2022-10-18T00:49:32.437Z,23.80
2022-10-18T00:50:35.325Z,23.80
2022-10-18T00:51:46.448Z,23.80
2022-10-18T00:52:55.355Z,23.80
2022-10-18T00:53:57.902Z,23.80
2022-10-18T00:55:00.956Z,23.80
2022-10-18T00:56:03.339Z,23.80
2022-10-18T00:57:06.744Z,23.80
2022-10-18T00:58:11.328Z,23.80
2022-10-18T00:59:16.686Z,23.80
2022-10-18T01:00:19.286Z,23.80
2022-10-18T01:01:24.480Z,23.80
2022-10-18T01:02:30.183Z,23.80
2022-10-18T01:03:32.838Z,23.80
2022-10-18T01:04:35.442Z,23.80
2022-10-18T01:05:43.686Z,23.80
2022-10-18T01:07:07.251Z,23.80
2022-10-18T01:08:30.430Z,23.80
2022-10-18T01:09:41.805Z,23.80
2022-10-18T01:10:51.561Z,23.80
2022-10-18T01:12:14.367Z,23.80
2022-10-18T01:13:36.721Z,23.80
2022-10-18T01:14:59.619Z,23.80
2022-10-18T01:16:08.373Z,23.80
2022-10-18T01:17:26.704Z,23.80
2022-10-18T01:18:38.386Z,23.80
2022-10-18T01:20:01.595Z,23.80
2022-10-18T01:21:09.676Z,23.80
2022-10-18T01:22:26.053Z,23.80
2022-10-18T01:23:45.164Z,23.80
2022-10-18T01:24:56.056Z,23.80
2022-10-18T01:26:22.256Z,23.80
2022-10-18T01:27:43.598Z,23.80
2022-10-18T01:28:57.178Z,23.80
2022-10-18T01:30:35.582Z,23.80
2022-10-18T01:32:04.821Z,23.80
2022-10-18T01:33:26.810Z,23.80
2022-10-18T01:34:33.772Z,23.80
2022-10-18T01:35:42.682Z,23.80
2022-10-18T01:36:49.545Z,23.80
2022-10-18T01:37:54.055Z,23.80
2022-10-18T01:38:59.887Z,23.80
2022-10-18T01:40:06.616Z,23.80
2022-10-18T01:41:14.746Z,23.80
2022-10-18T01:42:20.809Z,23.80
2022-10-18T01:43:24.352Z,23.80
2022-10-18T01:44:29.524Z,23.80
2022-10-18T01:45:32.553Z,23.80
2022-10-18T01:46:36.260Z,23.80
2022-10-18T01:47:40.261Z,23.80
2022-10-18T01:48:42.707Z,23.80
2022-10-18T01:49:45.193Z,23.80
2022-10-18T01:50:47.920Z,23.70
2022-10-18T01:51:50.157Z,23.80
2022-10-18T01:52:52.520Z,23.80
2022-10-18T01:53:55.421Z,23.70
2022-10-18T01:54:59.634Z,23.80
2022-10-18T01:56:34.505Z,23.70
2022-10-18T01:58:04.343Z,23.70
2022-10-18T01:59:30.479Z,23.60
2022-10-18T02:00:40.842Z,23.50
2022-10-18T02:02:12.655Z,23.50
2022-10-18T02:03:20.002Z,23.50
2022-10-18T02:04:59.674Z,23.50
2022-10-18T02:06:13.431Z,23.40
2022-10-18T02:07:23.362Z,23.30
2022-10-18T02:08:47.266Z,23.30
2022-10-18T02:10:01.056Z,23.30
2022-10-18T02:11:09.999Z,23.20
2022-10-18T02:12:15.491Z,23.20
2022-10-18T02:13:20.638Z,23.20
2022-10-18T02:14:25.590Z,23.20
2022-10-18T02:15:35.775Z,23.10
2022-10-18T02:16:58.592Z,23.10
2022-10-18T02:18:05.448Z,23.10
2022-10-18T02:19:32.351Z,23.10
2022-10-18T02:20:36.472Z,23.10
2022-10-18T02:21:41.962Z,23.00
2022-10-18T02:22:45.991Z,23.00
2022-10-18T02:23:49.387Z,22.90
2022-10-18T02:24:56.079Z,23.00
2022-10-18T02:25:58.436Z,23.00
2022-10-18T02:27:01.291Z,22.90
2022-10-18T02:28:05.468Z,22.90
2022-10-18T02:29:08.394Z,22.90
2022-10-18T02:30:11.729Z,22.90
2022-10-18T02:31:27.072Z,22.90
2022-10-18T02:32:34.077Z,22.90
2022-10-18T02:33:57.262Z,22.90
2022-10-18T02:35:01.720Z,22.80
2022-10-18T02:36:12.387Z,22.80
2022-10-18T02:37:15.334Z,22.80
2022-10-18T02:38:19.563Z,22.80
2022-10-18T02:39:30.805Z,22.80
2022-10-18T02:40:33.122Z,22.80
2022-10-18T02:41:35.450Z,22.80
2022-10-18T02:42:41.248Z,22.80
2022-10-18T02:43:43.546Z,22.80
2022-10-18T02:44:45.777Z,22.80
2022-10-18T02:45:48.058Z,22.80
2022-10-18T02:46:50.515Z,22.80
2022-10-18T02:47:53.399Z,22.80
2022-10-18T02:48:55.629Z,22.80
2022-10-18T02:49:58.017Z,22.80
2022-10-18T02:51:00.273Z,22.80
2022-10-18T02:52:02.693Z,22.80
2022-10-18T02:53:04.988Z,22.80
2022-10-18T02:54:08.367Z,22.80
2022-10-18T02:55:11.017Z,22.80
2022-10-18T02:56:13.551Z,22.80
2022-10-18T02:57:15.768Z,22.80
2022-10-18T02:58:18.094Z,22.90
2022-10-18T02:59:20.577Z,22.90
2022-10-18T03:00:22.830Z,22.90
2022-10-18T03:01:25.155Z,22.90
2022-10-18T03:02:27.896Z,22.90
2022-10-18T03:03:30.197Z,22.90
2022-10-18T03:04:32.534Z,22.90
2022-10-18T03:05:34.842Z,23.00
2022-10-18T03:06:37.136Z,23.00
2022-10-18T03:07:39.356Z,23.00
2022-10-18T03:08:41.624Z,23.00
2022-10-18T03:09:43.898Z,23.00
2022-10-18T03:10:46.690Z,23.00
2022-10-18T03:11:48.944Z,23.00
2022-10-18T03:12:51.198Z,23.00
2022-10-18T03:13:53.409Z,23.00
2022-10-18T03:14:55.782Z,23.00
2022-10-18T03:15:58.027Z,23.00
2022-10-18T03:17:00.394Z,23.00
2022-10-18T03:18:02.756Z,23.00
2022-10-18T03:19:05.121Z,23.00
2022-10-18T03:20:07.891Z,23.00
2022-10-18T03:21:10.649Z,23.00
2022-10-18T03:22:12.903Z,23.00
2022-10-18T03:23:15.195Z,23.00
2022-10-18T03:24:17.656Z,23.00
2022-10-18T03:25:19.937Z,23.00
2022-10-18T03:26:22.395Z,23.00
2022-10-18T03:27:24.734Z,23.00
2022-10-18T03:28:27.135Z,23.00
2022-10-18T03:29:29.491Z,22.90
2022-10-18T03:30:31.747Z,22.90
2022-10-18T03:31:34.038Z,22.90
2022-10-18T03:32:36.307Z,22.90
2022-10-18T03:33:38.645Z,22.80
2022-10-18T03:34:40.922Z,22.80
2022-10-18T03:35:43.145Z,22.80
2022-10-18T03:36:45.392Z,22.80
2022-10-18T03:37:47.652Z,22.80
2022-10-18T03:38:49.934Z,22.80
2022-10-18T03:39:52.217Z,22.80
2022-10-18T03:40:54.519Z,22.80
2022-10-18T03:41:56.831Z,22.80
2022-10-18T03:42:59.157Z,22.80
2022-10-18T03:44:01.432Z,22.80
2022-10-18T03:45:04.372Z,22.70
2022-10-18T03:46:06.792Z,22.70
2022-10-18T03:47:09.059Z,22.80
2022-10-18T03:48:11.529Z,22.80
2022-10-18T03:49:13.903Z,22.80
2022-10-18T03:50:16.215Z,22.80
2022-10-18T03:51:18.560Z,22.80
2022-10-18T03:52:20.857Z,22.70
2022-10-18T03:53:23.185Z,22.70
2022-10-18T03:54:25.528Z,22.70
2022-10-18T03:55:27.892Z,22.70
2022-10-18T03:56:30.164Z,22.70
2022-10-18T03:57:32.526Z,22.70
2022-10-18T03:59:42.001Z,22.70
2022-10-18T04:00:44.278Z,22.70
2022-10-18T04:01:46.614Z,22.70
2022-10-18T04:02:52.121Z,22.70
2022-10-18T04:03:57.359Z,22.70
2022-10-18T04:04:59.785Z,22.70
2022-10-18T04:06:03.524Z,22.70
2022-10-18T04:07:06.018Z,22.60
2022-10-18T04:08:08.334Z,22.60
2022-10-18T04:09:10.821Z,22.60
2022-10-18T04:10:13.127Z,22.60
2022-10-18T04:11:15.503Z,22.60
2022-10-18T04:12:17.781Z,22.60
2022-10-18T04:13:20.054Z,22.60
2022-10-18T04:14:22.451Z,22.60
2022-10-18T04:15:24.753Z,22.50
2022-10-18T04:16:27.088Z,22.60
2022-10-18T04:17:29.696Z,22.60
2022-10-18T04:18:32.166Z,22.60
2022-10-18T04:19:34.469Z,22.60
2022-10-18T04:20:36.990Z,22.60
2022-10-18T04:21:39.386Z,22.60
2022-10-18T04:22:41.731Z,22.60
2022-10-18T04:23:44.029Z,22.60
2022-10-18T04:24:46.319Z,22.60
2022-10-18T04:25:48.646Z,22.60
2022-10-18T04:26:51.069Z,22.60
2022-10-18T04:27:53.341Z,22.60
2022-10-18T04:28:55.705Z,22.60
2022-10-18T04:30:01.091Z,22.60
2022-10-18T04:31:03.380Z,22.70
2022-10-18T04:32:05.726Z,22.60
2022-10-18T04:33:07.988Z,22.60
2022-10-18T04:34:10.916Z,22.60
2022-10-18T04:35:13.169Z,22.60
2022-10-18T04:36:15.409Z,22.60
2022-10-18T04:37:17.731Z,22.70
2022-10-18T04:38:20.600Z,22.70
2022-10-18T04:39:23.059Z,22.60
2022-10-18T04:40:25.358Z,22.60
2022-10-18T04:41:27.653Z,22.60
2022-10-18T04:42:29.933Z,22.60
2022-10-18T04:43:32.325Z,22.60
2022-10-18T04:44:34.670Z,22.60
2022-10-18T04:45:37.037Z,22.60
2022-10-18T04:46:39.288Z,22.60
2022-10-18T04:47:41.572Z,22.60
2022-10-18T04:48:43.867Z,22.60
2022-10-18T04:49:46.173Z,22.60
2022-10-18T04:50:49.737Z,22.60
2022-10-18T04:51:52.042Z,22.60
2022-10-18T04:52:54.311Z,22.60
2022-10-18T04:53:56.962Z,22.60
2022-10-18T04:54:59.220Z,22.60
2022-10-18T04:56:03.631Z,22.60
2022-10-18T04:57:06.048Z,22.60
2022-10-18T04:58:08.312Z,22.60
2022-10-18T04:59:10.650Z,22.60
2022-10-18T05:00:13.372Z,22.60
2022-10-18T05:01:17.059Z,22.50
2022-10-18T05:02:19.365Z,22.50
2022-10-18T05:03:21.705Z,22.60
2022-10-18T05:04:23.994Z,22.60
2022-10-18T05:05:43.326Z,22.60
2022-10-18T05:06:48.621Z,22.50
2022-10-18T05:07:50.875Z,22.60
2022-10-18T05:08:53.120Z,22.60
2022-10-18T05:09:55.433Z,22.60
2022-10-18T05:10:57.748Z,22.60
2022-10-18T05:12:00.118Z,22.60
2022-10-18T05:13:02.441Z,22.60
2022-10-18T05:14:04.842Z,22.60
2022-10-18T05:15:07.453Z,22.60
2022-10-18T05:16:09.740Z,22.50
2022-10-18T05:17:11.990Z,22.50
2022-10-18T05:18:14.368Z,22.60
2022-10-18T05:19:16.747Z,22.60
2022-10-18T05:20:19.057Z,22.70
2022-10-18T05:21:21.307Z,22.70
2022-10-18T05:22:23.528Z,22.80
2022-10-18T05:23:25.925Z,22.80
2022-10-18T05:24:28.442Z,22.90
2022-10-18T05:25:30.697Z,22.90
2022-10-18T05:26:33.107Z,23.00
2022-10-18T05:27:35.454Z,23.00
2022-10-18T05:28:40.455Z,23.00
2022-10-18T05:29:43.632Z,23.10
2022-10-18T05:30:45.889Z,23.10
2022-10-18T05:31:48.903Z,23.20
2022-10-18T05:32:51.175Z,23.20
2022-10-18T05:33:53.467Z,23.30
2022-10-18T05:34:55.859Z,23.30
2022-10-18T05:35:58.594Z,23.30
2022-10-18T05:37:01.391Z,23.30
2022-10-18T05:38:06.967Z,23.40
2022-10-18T05:39:09.336Z,23.40
2022-10-18T05:40:12.030Z,23.40
2022-10-18T05:41:14.408Z,23.40
2022-10-18T05:42:17.491Z,23.50
2022-10-18T05:43:19.884Z,23.50
2022-10-18T05:44:22.341Z,23.50
2022-10-18T05:45:24.676Z,23.50
2022-10-18T05:46:26.976Z,23.60
2022-10-18T05:47:29.514Z,23.60
2022-10-18T05:48:31.910Z,23.60
2022-10-18T05:49:34.234Z,23.60
2022-10-18T05:50:39.543Z,23.60
2022-10-18T05:51:42.807Z,23.60
2022-10-18T05:52:45.070Z,23.60
2022-10-18T05:53:47.341Z,23.60
2022-10-18T05:54:49.648Z,23.70
2022-10-18T05:55:52.013Z,23.60
2022-10-18T05:56:54.311Z,23.70
2022-10-18T05:57:56.766Z,23.70
2022-10-18T05:58:59.111Z,23.70
2022-10-18T06:00:01.514Z,23.70
2022-10-18T06:01:14.094Z,23.60
2022-10-18T06:02:16.466Z,23.70
2022-10-18T06:03:18.766Z,23.70
2022-10-18T06:04:21.356Z,23.70
2022-10-18T06:05:23.694Z,23.70
2022-10-18T06:06:25.971Z,23.70
2022-10-18T06:07:28.252Z,23.80
2022-10-18T06:08:30.760Z,23.80
2022-10-18T06:09:33.002Z,23.80
2022-10-18T06:10:35.493Z,23.80
2022-10-18T06:11:37.766Z,23.80
2022-10-18T06:12:40.023Z,23.80
2022-10-18T06:13:47.026Z,23.80
2022-10-18T06:14:49.447Z,23.80
2022-10-18T06:15:56.280Z,23.80
2022-10-18T06:16:58.529Z,23.80
2022-10-18T06:18:00.981Z,23.90
2022-10-18T06:19:03.276Z,23.90
2022-10-18T06:20:07.266Z,23.90
2022-10-18T06:21:10.202Z,23.80
2022-10-18T06:22:12.778Z,23.80
2022-10-18T06:23:15.119Z,23.80
2022-10-18T06:24:18.458Z,23.80
2022-10-18T06:25:20.721Z,23.70
2022-10-18T06:26:23.289Z,23.60
2022-10-18T06:27:25.571Z,23.60
2022-10-18T06:28:28.783Z,23.50
2022-10-18T06:29:31.091Z,23.50
2022-10-18T06:30:34.194Z,23.50
2022-10-18T06:31:36.454Z,23.40
2022-10-18T06:32:38.731Z,23.40
2022-10-18T06:33:41.036Z,23.40
2022-10-18T06:34:43.296Z,23.30
2022-10-18T06:35:58.654Z,23.30
2022-10-18T06:37:01.251Z,23.30
2022-10-18T06:38:03.798Z,23.40
2022-10-18T06:39:06.069Z,23.40
2022-10-18T06:40:08.957Z,23.40
2022-10-18T06:41:11.601Z,23.40
2022-10-18T06:42:14.803Z,23.50
2022-10-18T06:43:21.497Z,23.50
2022-10-18T06:44:24.028Z,23.50
2022-10-18T06:45:26.266Z,23.50
2022-10-18T06:46:28.616Z,23.60
2022-10-18T06:47:30.902Z,23.60
2022-10-18T06:48:34.897Z,23.60
2022-10-18T06:49:37.154Z,23.70
2022-10-18T06:50:39.488Z,23.70
2022-10-18T06:51:43.245Z,23.70
2022-10-18T06:52:45.550Z,23.70
2022-10-18T06:54:05.913Z,23.80
2022-10-18T06:55:10.305Z,23.80
2022-10-18T06:56:13.662Z,23.80
2022-10-18T06:57:15.941Z,23.80
2022-10-18T06:58:18.417Z,23.90
2022-10-18T06:59:20.843Z,23.90
2022-10-18T07:00:23.276Z,23.90
2022-10-18T07:01:25.781Z,23.90
2022-10-18T07:02:28.092Z,23.90
2022-10-18T07:03:30.440Z,23.90
2022-10-18T07:04:32.837Z,23.90
2022-10-18T07:05:35.083Z,23.90
2022-10-18T07:06:37.377Z,24.00
2022-10-18T07:07:39.666Z,24.00
2022-10-18T07:08:42.525Z,24.00
2022-10-18T07:09:45.989Z,23.90
2022-10-18T07:10:53.147Z,24.00
2022-10-18T07:11:55.465Z,24.00
2022-10-18T07:13:13.633Z,24.00
2022-10-18T07:14:20.060Z,24.00
2022-10-18T07:15:24.007Z,24.00
2022-10-18T07:16:26.499Z,23.90
2022-10-18T07:17:28.860Z,23.90
2022-10-18T07:18:33.086Z,23.90
2022-10-18T07:19:35.311Z,23.90
2022-10-18T07:20:37.570Z,23.80
2022-10-18T07:21:39.809Z,23.80
2022-10-18T07:22:42.208Z,23.80
2022-10-18T07:23:48.418Z,23.80
2022-10-18T07:24:50.915Z,23.70
2022-10-18T07:25:53.220Z,23.70
2022-10-18T07:26:55.438Z,23.70
2022-10-18T07:27:57.679Z,23.60
2022-10-18T07:29:04.912Z,23.60
2022-10-18T07:30:09.368Z,23.60
2022-10-18T07:31:12.191Z,23.60
2022-10-18T07:32:14.465Z,23.60
2022-10-18T07:33:16.706Z,23.60
2022-10-18T07:34:18.951Z,23.50
2022-10-18T07:35:21.191Z,23.50
2022-10-18T07:36:24.443Z,23.50
2022-10-18T07:37:29.396Z,23.50
2022-10-18T07:38:33.166Z,23.50
2022-10-18T07:39:35.416Z,23.50
2022-10-18T07:40:37.686Z,23.50
2022-10-18T07:41:40.016Z,23.40
2022-10-18T07:42:42.328Z,23.40
2022-10-18T07:43:46.914Z,23.40
2022-10-18T07:44:49.197Z,23.40
2022-10-18T07:45:53.019Z,23.40
2022-10-18T07:46:55.609Z,23.40
2022-10-18T07:47:58.100Z,23.40
2022-10-18T07:49:00.448Z,23.40
2022-10-18T07:50:02.744Z,23.40
2022-10-18T07:51:05.501Z,23.40
2022-10-18T07:52:07.821Z,23.30
2022-10-18T07:53:10.045Z,23.40
2022-10-18T07:54:12.331Z,23.30
2022-10-18T07:55:14.777Z,23.30
2022-10-18T07:56:20.757Z,23.30
2022-10-18T07:57:23.379Z,23.30
2022-10-18T07:58:25.738Z,23.30
2022-10-18T07:59:28.019Z,23.30
2022-10-18T08:00:30.302Z,23.30
2022-10-18T08:01:32.606Z,23.30
2022-10-18T08:02:35.328Z,23.30
2022-10-18T08:03:38.688Z,23.30
2022-10-18T08:04:41.510Z,23.30
2022-10-18T08:05:43.782Z,23.20
2022-10-18T08:06:46.195Z,23.20
2022-10-18T08:07:48.439Z,23.20
2022-10-18T08:08:52.259Z,23.20
2022-10-18T08:09:54.521Z,23.30
2022-10-18T08:11:05.861Z,23.20
2022-10-18T08:12:08.007Z,23.20
2022-10-18T08:13:10.215Z,23.20
2022-10-18T08:14:12.484Z,23.20
2022-10-18T08:15:14.848Z,23.20
2022-10-18T08:16:21.494Z,23.20
2022-10-18T08:17:23.864Z,23.20
2022-10-18T08:18:26.115Z,23.20
2022-10-18T08:19:28.323Z,23.20
2022-10-18T08:20:31.974Z,23.20
2022-10-18T08:21:34.322Z,23.20
2022-10-18T08:22:36.834Z,23.30
2022-10-18T08:23:39.650Z,23.30
2022-10-18T08:24:41.987Z,23.30
2022-10-18T08:25:44.277Z,23.30
2022-10-18T08:26:46.541Z,23.30
2022-10-18T08:27:48.807Z,23.30
2022-10-18T08:28:54.334Z,23.30
2022-10-18T08:30:12.023Z,23.30
2022-10-18T08:31:20.080Z,23.30
2022-10-18T08:32:22.353Z,23.30
2022-10-18T08:33:24.614Z,23.30
2022-10-18T08:34:26.920Z,23.30
2022-10-18T08:35:29.282Z,23.30
2022-10-18T08:36:31.576Z,23.30
2022-10-18T08:37:34.878Z,23.30
2022-10-18T08:38:38.988Z,23.30
2022-10-18T08:39:41.256Z,23.30
2022-10-18T08:40:44.381Z,23.30
2022-10-18T08:42:11.897Z,23.30
2022-10-18T08:43:28.956Z,23.30
2022-10-18T08:44:32.899Z,23.40
2022-10-18T08:45:42.327Z,23.40
2022-10-18T08:46:51.704Z,23.40
2022-10-18T08:47:57.590Z,23.40
2022-10-18T08:49:01.900Z,23.40
2022-10-18T08:50:07.910Z,23.40
2022-10-18T08:51:34.147Z,23.40
2022-10-18T08:52:45.003Z,23.40
2022-10-18T08:53:56.800Z,23.50
2022-10-18T08:55:10.119Z,23.50
2022-10-18T08:56:16.171Z,23.50
2022-10-18T08:57:19.726Z,23.50
2022-10-18T08:58:24.634Z,23.50
2022-10-18T08:59:38.964Z,23.50
2022-10-18T09:00:49.931Z,23.50
2022-10-18T09:02:00.836Z,23.50
2022-10-18T09:03:40.156Z,23.60
2022-10-18T09:05:13.325Z,23.60
2022-10-18T09:06:34.943Z,23.60
2022-10-18T09:07:59.200Z,23.60
2022-10-18T09:09:19.697Z,23.60
2022-10-18T09:10:43.597Z,23.60
2022-10-18T09:12:07.501Z,23.60
2022-10-18T09:13:37.443Z,23.60
2022-10-18T09:15:08.680Z,23.60
2022-10-18T09:16:21.721Z,23.60
2022-10-18T09:17:54.335Z,23.60
2022-10-18T09:19:07.852Z,23.60
2022-10-18T09:20:24.082Z,23.60
2022-10-18T09:21:35.235Z,23.60
2022-10-18T09:22:43.527Z,23.60
2022-10-18T09:23:54.875Z,23.60
2022-10-18T09:25:03.342Z,23.60
2022-10-18T09:26:15.737Z,23.70
2022-10-18T09:27:19.518Z,23.60
2022-10-18T09:28:38.690Z,23.70
2022-10-18T09:29:49.744Z,23.70
2022-10-18T09:30:59.573Z,23.80
2022-10-18T09:32:04.766Z,23.80
2022-10-18T09:33:26.688Z,23.80
2022-10-18T09:34:46.104Z,23.80
2022-10-18T09:35:56.842Z,23.80
2022-10-18T09:36:59.892Z,23.80
2022-10-18T09:38:11.173Z,23.80
2022-10-18T09:39:16.555Z,23.80
2022-10-18T09:40:24.206Z,23.90
2022-10-18T09:41:32.392Z,23.90
2022-10-18T09:42:42.032Z,23.90
2022-10-18T09:44:02.214Z,23.90
2022-10-18T09:45:18.054Z,23.90
2022-10-18T09:46:25.172Z,23.90
2022-10-18T09:47:38.472Z,23.90
2022-10-18T09:48:49.167Z,24.00
2022-10-18T09:49:57.165Z,24.00
2022-10-18T09:51:17.587Z,24.00
2022-10-18T09:52:34.619Z,24.00
2022-10-18T09:53:47.547Z,24.00
2022-10-18T09:55:00.554Z,24.00
2022-10-18T09:56:06.982Z,24.00
2022-10-18T09:57:11.088Z,24.00
2022-10-18T09:58:14.123Z,24.00
2022-10-18T09:59:41.856Z,24.00
2022-10-18T10:00:50.670Z,24.00
2022-10-18T10:01:53.013Z,24.00
2022-10-18T10:02:55.349Z,24.00
2022-10-18T10:03:58.064Z,24.00
2022-10-18T10:05:00.444Z,24.10
2022-10-18T10:06:15.094Z,24.10
2022-10-18T10:07:29.858Z,24.10
2022-10-18T10:08:35.287Z,24.10
2022-10-18T10:09:58.379Z,24.10
2022-10-18T10:11:01.149Z,24.10
2022-10-18T10:12:03.686Z,24.10
2022-10-18T10:13:24.254Z,24.10
2022-10-18T10:14:30.136Z,24.10
2022-10-18T10:15:37.104Z,24.10
2022-10-18T10:16:49.888Z,24.20
2022-10-18T10:18:00.269Z,24.20
2022-10-18T10:19:02.786Z,24.20
2022-10-18T10:20:20.189Z,24.20
2022-10-18T10:21:23.338Z,24.20
2022-10-18T10:22:36.775Z,24.20
2022-10-18T10:23:55.539Z,24.20
2022-10-18T10:24:57.805Z,24.20
2022-10-18T10:26:03.696Z,24.20
2022-10-18T10:27:13.968Z,24.30
2022-10-18T10:28:20.254Z,24.30
2022-10-18T10:29:48.136Z,24.30
2022-10-18T10:30:50.834Z,24.30
2022-10-18T10:32:03.664Z,24.30
2022-10-18T10:33:07.020Z,24.30
2022-10-18T10:34:14.913Z,24.30
2022-10-18T10:35:41.534Z,24.30
2022-10-18T10:36:50.013Z,24.30
2022-10-18T10:37:54.162Z,24.30
2022-10-18T10:39:18.990Z,24.30
2022-10-18T10:40:28.514Z,24.30
2022-10-18T10:42:38.954Z,24.30
2022-10-18T10:43:45.548Z,24.20
2022-10-18T10:44:55.260Z,24.30
2022-10-18T10:46:03.795Z,24.20
2022-10-18T10:47:06.350Z,24.20
2022-10-18T10:48:15.009Z,24.20
2022-10-18T10:49:40.697Z,24.20
2022-10-18T10:50:55.191Z,24.20
2022-10-18T10:52:08.864Z,24.20
2022-10-18T10:53:38.942Z,24.20
2022-10-18T10:54:50.277Z,24.20
2022-10-18T10:55:56.394Z,24.20
2022-10-18T10:57:01.463Z,24.20
2022-10-18T10:58:03.847Z,24.20
2022-10-18T10:59:15.546Z,24.20
2022-10-18T11:00:39.459Z,24.20
2022-10-18T11:01:42.043Z,24.30
2022-10-18T11:02:55.392Z,24.30
2022-10-18T11:04:38.365Z,24.30
2022-10-18T11:05:49.528Z,24.30
2022-10-18T11:07:26.004Z,24.30
2022-10-18T11:08:41.463Z,24.30
2022-10-18T11:10:11.811Z,24.30
2022-10-18T11:11:23.313Z,24.30
2022-10-18T11:12:28.856Z,24.30
2022-10-18T11:14:13.581Z,24.30
2022-10-18T11:15:43.220Z,24.30
2022-10-18T11:16:56.167Z,24.30
2022-10-18T11:18:17.204Z,24.30
2022-10-18T11:19:53.015Z,24.20
2022-10-18T11:21:02.137Z,24.10
2022-10-18T11:22:09.424Z,24.10
2022-10-18T11:23:14.088Z,24.10
2022-10-18T11:24:16.829Z,24.00
2022-10-18T11:25:21.718Z,24.00
2022-10-18T11:26:29.737Z,23.90
2022-10-18T11:27:49.282Z,23.90
2022-10-18T11:29:17.460Z,24.00
2022-10-18T11:30:25.633Z,23.90
2022-10-18T11:31:56.731Z,23.90
2022-10-18T11:33:06.619Z,23.90
2022-10-18T11:34:23.569Z,24.00
2022-10-18T11:35:53.652Z,24.00
2022-10-18T11:37:28.585Z,24.00
2022-10-18T11:39:06.238Z,24.00
2022-10-18T11:40:45.535Z,24.10
2022-10-18T11:41:55.472Z,24.10
2022-10-18T11:43:16.432Z,24.20
2022-10-18T11:44:45.345Z,24.20
2022-10-18T11:45:50.427Z,24.10
2022-10-18T11:47:11.367Z,24.20
2022-10-18T11:48:50.782Z,24.20
2022-10-18T11:50:02.245Z,24.20
2022-10-18T11:51:29.744Z,24.10
2022-10-18T11:53:16.840Z,24.10
2022-10-18T11:54:49.724Z,24.20
2022-10-18T11:56:22.400Z,24.20
2022-10-18T11:57:42.980Z,24.20
2022-10-18T11:59:00.564Z,24.20
2022-10-18T12:00:21.177Z,24.20
2022-10-18T12:01:47.796Z,24.20
2022-10-18T12:03:15.421Z,24.20
2022-10-18T12:04:27.879Z,24.20
2022-10-18T12:05:32.069Z,24.20
2022-10-18T12:06:38.720Z,24.20
2022-10-18T12:08:12.220Z,24.20
2022-10-18T12:09:26.071Z,24.20
2022-10-18T12:10:45.815Z,24.30
2022-10-18T12:12:06.230Z,24.20
2022-10-18T12:13:18.164Z,24.20
2022-10-18T12:14:33.307Z,24.20
2022-10-18T12:15:39.041Z,24.20
2022-10-18T12:17:20.368Z,24.30
2022-10-18T12:18:14.656Z,24.20
2022-10-18T12:19:29.326Z,24.20
2022-10-18T12:20:35.092Z,24.20
2022-10-18T12:21:38.368Z,24.20
2022-10-18T12:23:01.809Z,24.30
2022-10-18T12:24:12.515Z,24.20
2022-10-18T12:25:17.413Z,24.20
2022-10-18T12:26:20.638Z,24.30
2022-10-18T12:27:34.684Z,24.30
2022-10-18T12:29:05.707Z,24.30
2022-10-18T12:30:20.360Z,24.30
2022-10-18T12:31:33.847Z,24.30
2022-10-18T12:32:37.312Z,24.30
2022-10-18T12:33:43.960Z,24.30
2022-10-18T12:34:50.282Z,24.30
2022-10-18T12:36:14.231Z,24.30
2022-10-18T12:37:35.865Z,24.30
2022-10-18T12:38:42.421Z,24.30
2022-10-18T12:40:09.130Z,24.30
2022-10-18T12:41:39.042Z,24.40
2022-10-18T12:42:48.239Z,24.40
2022-10-18T12:43:56.991Z,24.40
2022-10-18T12:45:20.732Z,24.40
2022-10-18T12:46:23.267Z,24.40
2022-10-18T12:47:26.377Z,24.40
2022-10-18T12:48:39.016Z,24.40
2022-10-18T12:49:43.929Z,24.40
2022-10-18T12:51:04.263Z,24.40
2022-10-18T12:52:21.932Z,24.40
2022-10-18T12:53:28.460Z,24.40
2022-10-18T12:54:34.041Z,24.40
2022-10-18T12:55:38.911Z,24.40
2022-10-18T12:56:43.187Z,24.40
2022-10-18T12:57:54.410Z,24.40
2022-10-18T12:59:14.996Z,24.40
2022-10-18T13:00:32.280Z,24.40
2022-10-18T13:01:52.899Z,24.40
2022-10-18T13:03:10.627Z,24.40
2022-10-18T13:04:33.716Z,24.40
2022-10-18T13:05:53.296Z,24.40
2022-10-18T13:07:04.574Z,24.40
2022-10-18T13:08:31.712Z,24.40
2022-10-18T13:09:36.416Z,24.30
2022-10-18T13:10:38.804Z,24.40
2022-10-18T13:11:41.100Z,24.30
2022-10-18T13:13:29.577Z,24.40
2022-10-18T13:15:07.075Z,24.40
2022-10-18T13:16:33.934Z,24.40
2022-10-18T13:17:47.036Z,24.40
2022-10-18T13:19:00.402Z,24.40
2022-10-18T13:20:30.311Z,24.40
2022-10-18T13:21:41.379Z,24.40
2022-10-18T13:23:27.846Z,24.40
2022-10-18T13:24:44.585Z,24.40
2022-10-18T13:25:58.572Z,24.40
2022-10-18T13:27:46.364Z,24.40
2022-10-18T13:29:19.299Z,24.40
2022-10-18T13:30:39.578Z,24.40
2022-10-18T13:31:44.864Z,24.40
2022-10-18T13:33:02.160Z,24.40
2022-10-18T13:34:24.646Z,24.40
2022-10-18T13:35:52.203Z,24.40
2022-10-18T13:37:06.318Z,24.30
2022-10-18T13:38:39.944Z,24.30
2022-10-18T13:39:42.751Z,24.30
2022-10-18T13:40:45.131Z,24.30
2022-10-18T13:41:47.375Z,24.30
2022-10-18T13:42:49.767Z,24.30
2022-10-18T13:44:11.326Z,24.30
2022-10-18T13:45:31.712Z,24.30
2022-10-18T13:46:33.932Z,24.30
2022-10-18T13:47:37.884Z,24.30
2022-10-18T13:48:40.204Z,24.30
2022-10-18T13:49:55.918Z,24.30
2022-10-18T13:51:26.187Z,24.30
2022-10-18T13:52:49.149Z,24.30
2022-10-18T13:54:09.887Z,24.20
2022-10-18T13:55:30.783Z,24.20
2022-10-18T13:56:33.139Z,24.20
2022-10-18T13:58:02.529Z,24.20
2022-10-18T13:59:45.902Z,24.20
2022-10-18T14:01:22.091Z,24.20
2022-10-18T14:02:56.949Z,24.20
2022-10-18T14:04:22.689Z,24.20
2022-10-18T14:05:56.783Z,24.20
2022-10-18T14:07:03.484Z,24.20
2022-10-18T14:08:17.299Z,24.20
2022-10-18T14:11:04.812Z,24.10
2022-10-18T14:12:35.170Z,24.10
2022-10-18T14:13:47.744Z,24.10
2022-10-18T14:15:18.063Z,24.20
2022-10-18T14:16:23.305Z,24.10
2022-10-18T14:17:35.494Z,24.10
2022-10-18T14:18:42.380Z,24.10
2022-10-18T14:20:07.296Z,24.20
2022-10-18T14:21:22.093Z,24.10
2022-10-18T14:22:36.471Z,24.20
2022-10-18T14:23:44.620Z,24.20
2022-10-18T14:24:51.515Z,24.10
2022-10-18T14:26:06.751Z,24.10
2022-10-18T14:27:17.056Z,24.10
2022-10-18T14:28:31.534Z,24.10
2022-10-18T14:29:39.781Z,24.20
2022-10-18T14:31:02.794Z,24.20
2022-10-18T14:32:10.198Z,24.20
2022-10-18T14:33:40.877Z,24.10
2022-10-18T14:34:44.106Z,24.10
2022-10-18T14:35:59.897Z,24.10
2022-10-18T14:37:02.288Z,24.10
2022-10-18T14:38:13.205Z,24.10
2022-10-18T14:39:26.505Z,24.10
2022-10-18T14:40:39.061Z,24.00
2022-10-18T14:41:50.250Z,24.10
2022-10-18T14:42:52.529Z,24.00
2022-10-18T14:44:14.918Z,24.00
2022-10-18T14:45:21.198Z,24.00
2022-10-18T14:46:28.987Z,24.00
2022-10-18T14:47:37.263Z,24.00
2022-10-18T14:48:39.591Z,24.10